VTD519 UWSK-UWSK
Flight info
| Callsign | VTD519 |
|---|---|
| Flight time | 0h 5m |
| Altitude | 1200 |
| Route | RA/012 |
| Aircraft | DA40/L-SDF/C |
Departure
| Time | 2026-04-22 15:12 |
|---|---|
| Airport | Krasny Kut Airport (UWSK) |
Arrival
| Time | 2026-04-22 15:18 |
|---|---|
| Airport | Krasny Kut Airport (UWSK) |
| Time | Latitude | Longitude | Altitude | Speed | Heading |
|---|---|---|---|---|---|
| 2026-04-22 14:54 | 50.95565 | 46.94464 | 165 ft | 0 kts | 172° |
| 2026-04-22 14:59 | 50.95565 | 46.94463 | 162 ft | 0 kts | 172° |
| 2026-04-22 15:04 | 50.95566 | 46.94463 | 162 ft | 0 kts | 173° |
| 2026-04-22 15:06 | 50.95563 | 46.94464 | 162 ft | 2 kts | 172° |
| 2026-04-22 15:07 | 50.95548 | 46.94460 | 163 ft | 2 kts | 208° |
| 2026-04-22 15:07 | 50.95540 | 46.94437 | 163 ft | 3 kts | 262° |
| 2026-04-22 15:07 | 50.95546 | 46.94409 | 162 ft | 4 kts | 328° |
| 2026-04-22 15:07 | 50.95586 | 46.94374 | 161 ft | 8 kts | 324° |
| 2026-04-22 15:08 | 50.95631 | 46.94368 | 160 ft | 6 kts | 27° |
| 2026-04-22 15:08 | 50.95648 | 46.94367 | 160 ft | 4 kts | 292° |
| 2026-04-22 15:08 | 50.95658 | 46.94331 | 160 ft | 0 kts | 293° |
| 2026-04-22 15:11 | 50.95674 | 46.94315 | 160 ft | 5 kts | 20° |
| 2026-04-22 15:11 | 50.95683 | 46.94322 | 160 ft | 6 kts | 32° |
| 2026-04-22 15:11 | 50.95892 | 46.94478 | 165 ft | 58 kts | 25° |
| 2026-04-22 15:11 | 50.96321 | 46.94833 | 267 ft | 76 kts | 24° |
| 2026-04-22 15:12 | 50.96806 | 46.95228 | 447 ft | 80 kts | 25° |
| 2026-04-22 15:12 | 50.97300 | 46.95623 | 643 ft | 82 kts | 24° |
| 2026-04-22 15:12 | 50.97873 | 46.96059 | 737 ft | 96 kts | 22° |
| 2026-04-22 15:12 | 50.98495 | 46.96348 | 946 ft | 93 kts | 348° |
| 2026-04-22 15:13 | 50.98956 | 46.95694 | 1121 ft | 93 kts | 294° |
| 2026-04-22 15:13 | 50.99238 | 46.94767 | 1156 ft | 98 kts | 297° |
| 2026-04-22 15:13 | 50.99558 | 46.93795 | 1158 ft | 98 kts | 295° |
| 2026-04-22 15:13 | 50.99498 | 46.92790 | 1193 ft | 98 kts | 233° |
| 2026-04-22 15:14 | 50.98914 | 46.92210 | 1193 ft | 101 kts | 206° |
| 2026-04-22 15:14 | 50.98268 | 46.91751 | 1188 ft | 102 kts | 207° |
| 2026-04-22 15:14 | 50.97631 | 46.91269 | 1225 ft | 100 kts | 205° |
| 2026-04-22 15:14 | 50.96983 | 46.90833 | 1225 ft | 104 kts | 204° |
| 2026-04-22 15:15 | 50.96308 | 46.90359 | 1194 ft | 108 kts | 206° |
| 2026-04-22 15:15 | 50.95648 | 46.89877 | 1249 ft | 100 kts | 206° |
| 2026-04-22 15:15 | 50.95026 | 46.89429 | 1247 ft | 96 kts | 205° |
| 2026-04-22 15:15 | 50.94398 | 46.89101 | 1237 ft | 96 kts | 178° |
| 2026-04-22 15:16 | 50.93898 | 46.89701 | 1251 ft | 94 kts | 113° |
| 2026-04-22 15:16 | 50.93629 | 46.90650 | 1152 ft | 94 kts | 111° |
| 2026-04-22 15:16 | 50.93441 | 46.91623 | 1032 ft | 90 kts | 103° |
| 2026-04-22 15:16 | 50.93556 | 46.92518 | 940 ft | 87 kts | 47° |
| 2026-04-22 15:17 | 50.94057 | 46.93036 | 821 ft | 82 kts | 27° |
| 2026-04-22 15:17 | 50.94558 | 46.93440 | 624 ft | 79 kts | 24° |
| 2026-04-22 15:17 | 50.95046 | 46.93826 | 429 ft | 79 kts | 24° |
| 2026-04-22 15:17 | 50.95551 | 46.94206 | 219 ft | 82 kts | 25° |
| 2026-04-22 15:18 | 50.95993 | 46.94556 | 169 ft | 52 kts | 26° |
| 2026-04-22 15:18 | 50.96092 | 46.94634 | 171 ft | 0 kts | 26° |
| 2026-04-22 15:19 | 50.96158 | 46.94668 | 172 ft | 8 kts | 45° |
| 2026-04-22 15:19 | 50.96309 | 46.94736 | 174 ft | 35 kts | 9° |
| 2026-04-22 15:19 | 50.96347 | 46.94868 | 172 ft | 11 kts | 142° |
| 2026-04-22 15:19 | 50.96300 | 46.94879 | 171 ft | 9 kts | 175° |
| 2026-04-22 15:20 | 50.96239 | 46.94874 | 171 ft | 16 kts | 200° |
| 2026-04-22 15:20 | 50.96097 | 46.94761 | 170 ft | 18 kts | 206° |
| 2026-04-22 15:20 | 50.95985 | 46.94669 | 170 ft | 17 kts | 206° |
| 2026-04-22 15:20 | 50.95881 | 46.94584 | 166 ft | 16 kts | 207° |
| 2026-04-22 15:21 | 50.95790 | 46.94507 | 165 ft | 14 kts | 210° |
| 2026-04-22 15:21 | 50.95658 | 46.94323 | 160 ft | 8 kts | 288° |
| 2026-04-22 15:22 | 50.95671 | 46.94297 | 161 ft | 0 kts | 24° |
| 2026-04-22 15:22 | 50.95680 | 46.94304 | 161 ft | 12 kts | 27° |
| 2026-04-22 15:22 | 50.95918 | 46.94497 | 166 ft | 62 kts | 29° |
| 2026-04-22 15:22 | 50.96336 | 46.94879 | 300 ft | 75 kts | 26° |
| 2026-04-22 15:23 | 50.96795 | 46.95340 | 494 ft | 78 kts | 25° |
| 2026-04-22 15:23 | 50.97262 | 46.95800 | 674 ft | 83 kts | 22° |
| 2026-04-22 15:23 | 50.97770 | 46.95944 | 874 ft | 75 kts | 329° |
| 2026-04-22 15:23 | 50.98151 | 46.95284 | 980 ft | 87 kts | 296° |
| 2026-04-22 15:24 | 50.98439 | 46.94430 | 1177 ft | 90 kts | 292° |
| 2026-04-22 15:24 | 50.98611 | 46.93807 | 1222 ft | 97 kts | 291° |
| 2026-04-22 15:24 | 50.98802 | 46.92785 | 1220 ft | 96 kts | 271° |
| 2026-04-22 15:24 | 50.98538 | 46.91850 | 1216 ft | 101 kts | 225° |
| 2026-04-22 15:25 | 50.97878 | 46.91369 | 1182 ft | 106 kts | 206° |
| 2026-04-22 15:25 | 50.97177 | 46.90966 | 1198 ft | 108 kts | 206° |
| 2026-04-22 15:25 | 50.96493 | 46.90482 | 1206 ft | 105 kts | 210° |
| 2026-04-22 15:25 | 50.95862 | 46.90027 | 1269 ft | 97 kts | 210° |
| 2026-04-22 15:26 | 50.95230 | 46.89604 | 1176 ft | 99 kts | 208° |
| 2026-04-22 15:26 | 50.94617 | 46.89236 | 1201 ft | 91 kts | 206° |
| 2026-04-22 15:26 | 50.93997 | 46.89087 | 1187 ft | 96 kts | 172° |
| 2026-04-22 15:26 | 50.93523 | 46.89863 | 1175 ft | 106 kts | 114° |
| 2026-04-22 15:27 | 50.93210 | 46.90925 | 1055 ft | 102 kts | 117° |
| 2026-04-22 15:27 | 50.92985 | 46.91943 | 968 ft | 95 kts | 92° |
| 2026-04-22 15:27 | 50.93325 | 46.92704 | 870 ft | 87 kts | 20° |
| 2026-04-22 15:27 | 50.93874 | 46.93051 | 751 ft | 85 kts | 14° |
| 2026-04-22 15:28 | 50.94429 | 46.93400 | 569 ft | 88 kts | 16° |
| 2026-04-22 15:28 | 50.94999 | 46.93791 | 367 ft | 89 kts | 20° |
| 2026-04-22 15:28 | 50.95526 | 46.94193 | 194 ft | 77 kts | 22° |
| 2026-04-22 15:28 | 50.95925 | 46.94497 | 166 ft | 38 kts | 26° |
| 2026-04-22 15:29 | 50.96242 | 46.94730 | 183 ft | 68 kts | 16° |
| 2026-04-22 15:29 | 50.96691 | 46.95151 | 337 ft | 78 kts | 25° |
| 2026-04-22 15:29 | 50.97164 | 46.95605 | 532 ft | 81 kts | 24° |
| 2026-04-22 15:30 | 50.98249 | 46.96263 | 860 ft | 88 kts | 337° |
| 2026-04-22 15:30 | 50.98689 | 46.95563 | 983 ft | 93 kts | 297° |
| 2026-04-22 15:30 | 50.99010 | 46.94682 | 1145 ft | 95 kts | 295° |
| 2026-04-22 15:30 | 50.99298 | 46.93712 | 1179 ft | 98 kts | 283° |
| 2026-04-22 15:31 | 50.99216 | 46.92640 | 1253 ft | 97 kts | 250° |
| 2026-04-22 15:31 | 50.98778 | 46.91804 | 1271 ft | 103 kts | 214° |
| 2026-04-22 15:31 | 50.98099 | 46.91367 | 1229 ft | 108 kts | 207° |
| 2026-04-22 15:31 | 50.97375 | 46.90955 | 1194 ft | 114 kts | 205° |
| 2026-04-22 15:32 | 50.96630 | 46.90542 | 1178 ft | 106 kts | 205° |
| 2026-04-22 15:32 | 50.95963 | 46.90196 | 1259 ft | 97 kts | 203° |
| 2026-04-22 15:32 | 50.95314 | 46.89913 | 1221 ft | 96 kts | 200° |
| 2026-04-22 15:32 | 50.94704 | 46.89592 | 1213 ft | 89 kts | 207° |
| 2026-04-22 15:33 | 50.94115 | 46.89226 | 1176 ft | 90 kts | 208° |
| 2026-04-22 15:33 | 50.93508 | 46.89107 | 1221 ft | 96 kts | 166° |
| 2026-04-22 15:33 | 50.93069 | 46.89942 | 1205 ft | 105 kts | 115° |
| 2026-04-22 15:33 | 50.92813 | 46.90992 | 1065 ft | 98 kts | 112° |
| 2026-04-22 15:34 | 50.92685 | 46.92013 | 966 ft | 94 kts | 76° |
| 2026-04-22 15:34 | 50.93095 | 46.92679 | 840 ft | 86 kts | 14° |
| 2026-04-22 15:34 | 50.93641 | 46.93004 | 739 ft | 84 kts | 12° |
| 2026-04-22 15:34 | 50.94197 | 46.93301 | 605 ft | 83 kts | 12° |
| 2026-04-22 15:35 | 50.94737 | 46.93625 | 468 ft | 83 kts | 15° |
| 2026-04-22 15:35 | 50.95273 | 46.93996 | 310 ft | 84 kts | 21° |
| 2026-04-22 15:35 | 50.95782 | 46.94397 | 171 ft | 75 kts | 22° |
| 2026-04-22 15:35 | 50.96125 | 46.94647 | 172 ft | 31 kts | 26° |
| 2026-04-22 15:36 | 50.96186 | 46.94849 | 171 ft | 12 kts | 141° |
| 2026-04-22 15:36 | 50.96144 | 46.94817 | 171 ft | 8 kts | 220° |
| 2026-04-22 15:36 | 50.96091 | 46.94749 | 170 ft | 11 kts | 222° |
| 2026-04-22 15:36 | 50.96060 | 46.94727 | 170 ft | 0 kts | 204° |
| 2026-04-22 15:37 | 50.96043 | 46.94715 | 170 ft | 6 kts | 207° |
| 2026-04-22 15:38 | 50.96000 | 46.94681 | 170 ft | 8 kts | 207° |
| 2026-04-22 15:38 | 50.95866 | 46.94569 | 166 ft | 14 kts | 207° |
| 2026-04-22 15:38 | 50.95787 | 46.94503 | 165 ft | 10 kts | 206° |
| 2026-04-22 15:39 | 50.95716 | 46.94444 | 162 ft | 14 kts | 208° |
| 2026-04-22 15:39 | 50.95632 | 46.94370 | 160 ft | 13 kts | 206° |
| 2026-04-22 15:39 | 50.95586 | 46.94404 | 161 ft | 7 kts | 93° |
| 2026-04-22 15:39 | 50.95583 | 46.94454 | 162 ft | 2 kts | 126° |
| 2026-04-22 15:40 | 50.95567 | 46.94466 | 162 ft | 2 kts | 178° |
| 2026-04-22 15:40 | 50.95564 | 46.94466 | 162 ft | 0 kts | 179° |